createdAt,value
2023-01-27T00:01:07.034Z,23.10
2023-01-27T00:03:36.492Z,24.70
2023-01-27T00:08:15.262Z,25.20
2023-01-27T00:10:43.529Z,34.80
2023-01-27T00:13:32.084Z,32.40
2023-01-27T00:16:00.420Z,31.70
2023-01-27T00:18:28.671Z,29.50
2023-01-27T00:21:15.630Z,28.80
2023-01-27T00:24:15.968Z,27.20
2023-01-27T00:26:44.193Z,27.70
2023-01-27T00:29:13.880Z,28.80
2023-01-27T00:32:00.506Z,28.20
2023-01-27T00:34:28.961Z,25.70
2023-01-27T00:36:57.145Z,25.70
2023-01-27T00:39:26.665Z,27.00
2023-01-27T00:41:55.448Z,26.00
2023-01-27T00:44:24.072Z,26.40
2023-01-27T00:46:54.982Z,29.70
2023-01-27T00:49:23.284Z,29.30
2023-01-27T00:51:51.476Z,29.60
2023-01-27T00:54:22.525Z,29.10
2023-01-27T00:56:50.931Z,30.60
2023-01-27T00:59:19.170Z,30.60
2023-01-27T01:01:50.206Z,31.30
2023-01-27T01:04:18.792Z,31.90
2023-01-27T01:06:48.036Z,32.60
2023-01-27T01:09:16.158Z,32.60
2023-01-27T01:11:44.306Z,29.60
2023-01-27T01:14:13.438Z,31.00
2023-01-27T04:54:41.344Z,56.70
2023-01-27T04:57:10.745Z,51.60
2023-01-27T04:59:38.949Z,55.70
2023-01-27T05:02:07.182Z,50.80
2023-01-27T05:04:35.535Z,52.20
2023-01-27T05:07:04.581Z,54.40
2023-01-27T05:09:32.955Z,59.10
2023-01-27T05:12:01.056Z,54.00
2023-01-27T05:14:30.201Z,51.60
2023-01-27T05:16:58.736Z,55.00
2023-01-27T05:19:26.898Z,50.90
2023-01-27T05:21:55.257Z,55.80
2023-01-27T05:24:23.409Z,54.10
2023-01-27T05:26:51.631Z,50.80
2023-01-27T05:29:19.904Z,50.30
2023-01-27T05:31:48.158Z,52.10
2023-01-27T05:34:16.997Z,50.40
2023-01-27T05:36:45.067Z,50.50
2023-01-27T05:39:13.534Z,54.30
2023-01-27T05:41:41.693Z,54.70
2023-01-27T05:44:11.553Z,54.20
2023-01-27T05:46:40.489Z,50.30
2023-01-27T05:49:09.595Z,50.20
2023-01-27T05:51:42.567Z,53.30
2023-01-27T05:54:10.814Z,54.00
2023-01-27T05:56:40.833Z,54.50
2023-01-27T05:59:10.256Z,52.10
2023-01-27T06:01:38.767Z,54.60
2023-01-27T06:04:06.989Z,51.80
2023-01-27T06:06:38.848Z,52.00
2023-01-27T06:09:07.194Z,49.10
2023-01-27T06:11:35.365Z,51.70
2023-01-27T06:14:04.942Z,51.40
2023-01-27T06:16:33.289Z,49.30
2023-01-27T06:19:01.503Z,51.00
2023-01-27T06:21:30.715Z,49.50
2023-01-27T06:23:58.965Z,51.50
2023-01-27T06:26:27.079Z,48.30
2023-01-27T06:28:56.757Z,48.00
2023-01-27T06:31:26.130Z,49.90
2023-01-27T06:33:54.500Z,49.50
2023-01-27T06:36:23.273Z,47.40
2023-01-27T06:38:51.686Z,47.80
2023-01-27T06:41:20.742Z,49.70
2023-01-27T06:43:49.041Z,48.80
2023-01-27T06:46:17.409Z,46.30
2023-01-27T06:48:45.668Z,50.20
2023-01-27T06:51:14.640Z,49.40
2023-01-27T06:53:42.928Z,52.60
2023-01-27T06:56:11.093Z,53.40
2023-01-27T06:58:39.324Z,51.20
2023-01-27T07:01:07.670Z,54.70
2023-01-27T07:03:37.311Z,49.60
2023-01-27T07:06:06.109Z,50.50
2023-01-27T07:08:34.673Z,52.40
2023-01-27T07:11:04.756Z,54.10
2023-01-27T07:13:33.117Z,57.00
2023-01-27T07:16:01.570Z,58.30
2023-01-27T07:18:30.001Z,53.20
2023-01-27T07:20:58.096Z,51.00
2023-01-27T07:23:26.408Z,50.80
2023-01-27T07:25:54.684Z,52.40
2023-01-27T07:28:23.392Z,48.40
2023-01-27T07:30:51.626Z,51.40
2023-01-27T07:33:21.440Z,47.30
2023-01-27T07:35:50.110Z,43.30
2023-01-27T07:38:18.549Z,43.00
2023-01-27T07:40:46.881Z,43.20
2023-01-27T07:43:15.220Z,38.40
2023-01-27T07:45:43.570Z,42.20
2023-01-27T07:48:13.018Z,39.60
2023-01-27T07:50:44.396Z,38.80
2023-01-27T07:55:40.718Z,39.40
2023-01-27T07:58:09.130Z,40.10
2023-01-27T08:00:37.560Z,39.60
2023-01-27T08:03:06.322Z,39.90
2023-01-27T08:05:34.667Z,39.50
2023-01-27T08:08:04.641Z,39.30
2023-01-27T08:10:33.237Z,44.20
2023-01-27T08:13:04.353Z,42.00
2023-01-27T08:15:32.725Z,44.40
2023-01-27T08:18:01.913Z,44.80
2023-01-27T08:20:30.452Z,48.90
2023-01-27T08:22:59.060Z,55.30
2023-01-27T08:25:27.184Z,50.70
2023-01-27T08:27:55.985Z,45.30
2023-01-27T08:30:24.276Z,48.10
2023-01-27T08:32:52.753Z,47.00
2023-01-27T08:35:20.982Z,46.10
2023-01-27T08:37:49.397Z,49.10
2023-01-27T08:40:18.195Z,48.70
2023-01-27T08:42:46.785Z,52.10
2023-01-27T08:45:14.975Z,44.90
2023-01-27T08:47:45.832Z,41.90
2023-01-27T08:50:14.256Z,43.80
2023-01-27T08:52:42.555Z,43.80
2023-01-27T08:55:11.789Z,41.40
2023-01-27T08:57:39.998Z,45.40
2023-01-27T09:00:09.001Z,47.80
2023-01-27T09:02:37.521Z,48.80
2023-01-27T09:05:05.967Z,46.70
2023-01-27T09:07:34.498Z,47.40
2023-01-27T09:10:17.911Z,45.70
2023-01-27T09:12:46.317Z,46.40
2023-01-27T09:15:14.748Z,47.40
2023-01-27T09:17:43.838Z,44.60
2023-01-27T09:20:13.596Z,46.50
2023-01-27T09:22:42.326Z,42.90
2023-01-27T09:25:14.140Z,45.90
2023-01-27T09:27:43.176Z,46.00
2023-01-27T09:30:12.452Z,48.70
2023-01-27T09:32:41.133Z,50.90
2023-01-27T09:35:09.741Z,52.20
2023-01-27T09:37:41.835Z,47.80
2023-01-27T09:40:15.836Z,46.30
2023-01-27T09:42:51.176Z,48.30
2023-01-27T09:45:44.082Z,47.80
2023-01-27T09:48:28.943Z,47.60
2023-01-27T09:51:21.789Z,47.80
2023-01-27T09:54:23.786Z,48.50
2023-01-27T09:57:07.987Z,46.70
2023-01-27T09:59:55.851Z,45.00
2023-01-27T10:02:56.016Z,42.50
2023-01-27T10:05:52.126Z,43.00
2023-01-27T10:08:39.286Z,39.30
2023-01-27T10:11:25.845Z,42.90
2023-01-27T10:14:01.543Z,40.80
2023-01-27T13:29:21.103Z,28.30
2023-01-27T13:32:04.353Z,24.00
2023-01-27T13:34:41.379Z,25.30
2023-01-27T13:37:21.998Z,27.00
2023-01-27T13:40:27.793Z,25.90
2023-01-27T13:43:12.972Z,26.30
2023-01-27T13:45:41.749Z,32.20
2023-01-27T13:48:12.341Z,29.70
2023-01-27T13:50:43.765Z,30.40
2023-01-27T13:53:13.316Z,31.90
2023-01-27T13:55:52.646Z,31.70
2023-01-27T13:58:58.626Z,33.20
2023-01-27T14:02:12.956Z,31.90
2023-01-27T14:04:59.582Z,31.50
2023-01-27T14:07:46.637Z,31.60
2023-01-27T14:10:41.081Z,34.00
2023-01-27T14:14:03.863Z,31.30
2023-01-27T14:16:35.243Z,29.40
2023-01-27T14:19:27.751Z,31.40
2023-01-27T14:22:08.493Z,30.90
2023-01-27T14:24:40.056Z,36.10
2023-01-27T14:29:54.358Z,33.30
2023-01-27T14:32:34.237Z,33.20
2023-01-27T14:35:05.800Z,32.20
2023-01-27T14:40:34.808Z,32.50
2023-01-27T14:43:03.221Z,32.80
2023-01-27T14:45:37.285Z,31.30
2023-01-27T14:48:12.011Z,32.60
2023-01-27T14:50:54.958Z,34.50
2023-01-27T14:53:52.469Z,34.10
2023-01-27T14:56:36.041Z,29.10
2023-01-27T14:59:49.571Z,33.60
2023-01-27T15:02:48.947Z,30.70
2023-01-27T15:06:02.765Z,29.20
2023-01-27T15:09:22.398Z,35.70
2023-01-27T15:12:03.328Z,27.10
2023-01-27T15:14:58.055Z,30.60
2023-01-27T15:17:38.819Z,30.10
2023-01-27T15:20:29.200Z,26.70
2023-01-27T15:23:21.790Z,31.80
2023-01-27T15:25:57.947Z,29.60
2023-01-27T15:28:29.509Z,30.70
2023-01-27T15:31:16.862Z,26.90
2023-01-27T15:33:48.149Z,30.80
2023-01-27T15:36:19.498Z,27.00
2023-01-27T15:39:02.788Z,29.50
2023-01-27T15:41:31.098Z,28.10
2023-01-27T15:44:16.144Z,27.00
2023-01-27T15:46:48.691Z,29.10
2023-01-27T15:49:38.647Z,30.40
2023-01-27T15:52:40.456Z,28.00
2023-01-27T15:55:18.161Z,27.70
2023-01-27T15:57:46.560Z,27.80
2023-01-27T16:00:26.438Z,27.80
2023-01-27T16:02:54.745Z,30.00
2023-01-27T16:05:30.976Z,28.90
2023-01-27T16:08:01.198Z,28.10
2023-01-27T16:10:34.819Z,31.70
2023-01-27T16:13:18.563Z,30.80
2023-01-27T16:15:48.014Z,28.90
2023-01-27T16:18:16.360Z,34.60
2023-01-27T16:21:03.728Z,29.50
2023-01-27T16:23:55.644Z,29.50
2023-01-27T16:26:41.243Z,28.40
2023-01-27T16:29:12.194Z,33.50
2023-01-27T16:31:42.197Z,32.40
2023-01-27T16:34:23.409Z,30.80
2023-01-27T16:37:02.307Z,31.50
2023-01-27T16:39:44.199Z,30.20
2023-01-27T16:44:45.638Z,30.20
2023-01-27T16:49:57.218Z,28.90
2023-01-27T16:52:41.252Z,29.00
2023-01-27T16:55:20.252Z,28.10
2023-01-27T16:57:49.068Z,26.90
2023-01-27T17:00:23.176Z,26.50
2023-01-27T17:02:52.107Z,27.00
2023-01-27T17:05:20.680Z,25.00
2023-01-27T17:08:24.283Z,25.60
2023-01-27T17:10:55.954Z,26.70
2023-01-27T17:13:29.182Z,30.80
2023-01-27T17:15:57.487Z,28.90
2023-01-27T17:18:25.788Z,29.30
2023-01-27T17:20:54.490Z,28.40
2023-01-27T17:23:36.267Z,30.70
2023-01-27T17:26:06.337Z,30.00
2023-01-27T17:28:36.262Z,28.20
2023-01-27T17:31:08.383Z,28.50
2023-01-27T17:33:38.093Z,30.90
2023-01-27T17:36:10.258Z,30.20
2023-01-27T17:38:45.579Z,29.50
2023-01-27T17:41:24.257Z,29.90
2023-01-27T17:43:52.866Z,30.60
2023-01-27T17:46:22.695Z,29.70
2023-01-27T17:49:06.263Z,28.10
2023-01-27T17:51:54.058Z,32.60
2023-01-27T17:54:50.634Z,31.20
2023-01-27T17:57:39.822Z,32.10
2023-01-27T18:04:14.095Z,27.90
2023-01-27T18:10:35.499Z,31.40
2023-01-27T18:13:18.884Z,30.60
2023-01-27T18:16:03.791Z,30.60
2023-01-27T18:18:35.528Z,30.20
2023-01-27T18:21:04.236Z,30.70
2023-01-27T18:23:43.563Z,29.10
2023-01-27T18:26:22.011Z,28.80
2023-01-27T18:28:53.743Z,27.30
2023-01-27T18:31:52.262Z,30.60
2023-01-27T18:34:33.811Z,28.20
2023-01-27T18:37:08.802Z,28.70
2023-01-27T18:39:40.876Z,27.10
2023-01-27T18:42:19.262Z,27.70
2023-01-27T18:44:51.740Z,29.80
2023-01-27T18:47:20.137Z,27.10
2023-01-27T18:50:01.437Z,26.80
2023-01-27T18:52:30.106Z,29.60
2023-01-27T18:55:02.376Z,29.10
2023-01-27T18:57:31.038Z,29.40
2023-01-27T18:59:59.234Z,27.00
2023-01-27T19:02:27.673Z,27.60
2023-01-27T19:04:56.013Z,28.70
2023-01-27T19:07:24.692Z,26.90
2023-01-27T19:09:52.926Z,30.20
2023-01-27T19:12:21.162Z,27.10
2023-01-27T19:14:49.486Z,28.70
2023-01-27T19:17:20.199Z,25.80
2023-01-27T19:19:48.511Z,27.80
2023-01-27T19:22:17.636Z,27.00
2023-01-27T19:24:46.163Z,26.10
2023-01-27T19:27:15.178Z,29.20
2023-01-27T19:29:44.538Z,27.30
2023-01-27T19:32:15.940Z,27.70
2023-01-27T19:34:44.170Z,27.40
2023-01-27T19:37:17.189Z,24.10
2023-01-27T19:39:46.416Z,27.50
2023-01-27T19:42:15.568Z,28.30
2023-01-27T19:44:43.959Z,28.50
2023-01-27T19:47:12.968Z,28.30
2023-01-27T19:49:41.445Z,27.40
2023-01-27T19:52:10.250Z,28.30
2023-01-27T19:54:38.513Z,30.50
2023-01-27T19:57:12.125Z,28.60
2023-01-27T19:59:40.403Z,26.90
2023-01-27T20:02:10.599Z,28.30
2023-01-27T20:04:39.002Z,29.10
2023-01-27T20:07:10.990Z,28.10
2023-01-27T20:09:39.421Z,27.60
2023-01-27T20:12:14.432Z,26.60
2023-01-27T20:14:47.955Z,26.90
2023-01-27T20:17:16.989Z,27.90
2023-01-27T20:19:47.893Z,27.30
2023-01-27T20:22:16.642Z,26.00
2023-01-27T20:24:44.851Z,27.40
2023-01-27T20:27:13.079Z,25.90
2023-01-27T20:29:41.957Z,24.30
2023-01-27T20:32:10.341Z,28.00
2023-01-27T20:34:39.179Z,26.80
2023-01-27T20:37:07.530Z,29.90
2023-01-27T20:39:36.034Z,28.30
2023-01-27T20:42:07.906Z,29.50
2023-01-27T20:44:36.882Z,28.50
2023-01-27T20:47:05.191Z,27.00
2023-01-27T20:49:35.997Z,27.50
2023-01-27T20:52:04.347Z,27.70
2023-01-27T20:54:32.651Z,30.40
2023-01-27T20:57:01.196Z,27.90
2023-01-27T20:59:30.211Z,28.90
2023-01-27T21:01:58.622Z,31.00
2023-01-27T21:04:26.830Z,29.00
2023-01-27T21:06:55.092Z,27.10
2023-01-27T21:09:23.956Z,28.80
2023-01-27T21:11:52.067Z,29.60
2023-01-27T21:14:24.359Z,30.10
2023-01-27T21:16:52.692Z,28.80
2023-01-27T21:19:21.459Z,27.30
2023-01-27T21:21:50.029Z,32.50
2023-01-27T21:24:18.182Z,29.30
2023-01-27T21:26:46.236Z,30.50
2023-01-27T21:29:14.784Z,29.40
2023-01-27T21:31:43.104Z,27.60
2023-01-27T21:34:11.265Z,30.40
2023-01-27T21:36:39.790Z,30.30
2023-01-27T21:39:08.058Z,29.00
2023-01-27T21:41:54.253Z,30.10
2023-01-27T21:44:45.205Z,29.10
2023-01-27T21:47:15.768Z,30.70
2023-01-27T21:50:03.042Z,27.40
2023-01-27T21:52:37.766Z,30.30
2023-01-27T21:55:07.513Z,29.70
2023-01-27T21:57:35.730Z,30.10
2023-01-27T22:00:05.389Z,29.50
2023-01-27T22:02:40.248Z,31.60
2023-01-27T22:05:09.450Z,30.90
2023-01-27T22:07:38.634Z,31.80
2023-01-27T22:10:07.948Z,29.40
2023-01-27T22:12:36.545Z,29.10
2023-01-27T22:15:06.589Z,30.30
2023-01-27T22:17:35.206Z,28.50
2023-01-27T22:20:04.036Z,29.80
2023-01-27T22:22:32.385Z,30.20
2023-01-27T22:25:00.958Z,27.00
2023-01-27T22:27:29.630Z,28.40
2023-01-27T22:29:57.746Z,27.60
2023-01-27T22:32:28.019Z,31.80
2023-01-27T22:34:56.461Z,28.20
2023-01-27T22:37:24.707Z,28.60
2023-01-27T22:39:52.845Z,26.50
2023-01-27T22:42:20.992Z,27.90
2023-01-27T22:44:49.107Z,27.90
2023-01-27T22:47:17.213Z,27.40
2023-01-27T22:49:45.313Z,31.20
2023-01-27T22:52:13.556Z,29.80
2023-01-27T22:54:41.736Z,26.20
2023-01-27T22:57:10.632Z,30.00
2023-01-27T22:59:38.967Z,28.40
2023-01-27T23:02:07.162Z,27.60
2023-01-27T23:04:37.533Z,31.10
2023-01-27T23:07:05.603Z,27.30
2023-01-27T23:09:33.823Z,28.80
2023-01-27T23:12:02.058Z,31.00
2023-01-27T23:14:30.259Z,28.30
2023-01-27T23:16:58.704Z,31.90
2023-01-27T23:19:27.443Z,30.20
2023-01-27T23:21:55.887Z,31.50
2023-01-27T23:24:24.113Z,28.40
2023-01-27T23:26:52.334Z,29.10
2023-01-27T23:29:24.940Z,30.60
2023-01-27T23:31:53.765Z,30.90
2023-01-27T23:34:22.113Z,29.30
2023-01-27T23:36:50.255Z,26.80
2023-01-27T23:39:18.447Z,28.20
2023-01-27T23:41:46.641Z,29.70
2023-01-27T23:44:14.952Z,30.50
2023-01-27T23:46:43.435Z,31.00
2023-01-27T23:49:12.911Z,30.50
2023-01-27T23:51:41.047Z,27.10
2023-01-27T23:54:09.149Z,29.00
2023-01-27T23:56:38.129Z,30.10
2023-01-27T23:59:06.395Z,27.40
